sensor_id;sensor_type;location;lat;lon;timestamp;pressure;altitude;pressure_sealevel;temperature;humidity
28344;BME280;15597;50.914;6.638;2023-03-26T00:00:27;100046.22;;;14.30;52.12
28344;BME280;15597;50.914;6.638;2023-03-26T00:02:53;100049.75;;;14.29;52.39
28344;BME280;15597;50.914;6.638;2023-03-26T00:05:18;100045.34;;;14.29;52.25
28344;BME280;15597;50.914;6.638;2023-03-26T00:07:44;100048.84;;;14.30;52.45
28344;BME280;15597;50.914;6.638;2023-03-26T00:10:10;100055.03;;;14.29;52.29
28344;BME280;15597;50.914;6.638;2023-03-26T00:12:36;100056.72;;;14.30;52.01
28344;BME280;15597;50.914;6.638;2023-03-26T00:15:02;100052.31;;;14.30;52.09
28344;BME280;15597;50.914;6.638;2023-03-26T00:17:29;100057.56;;;14.30;51.99
28344;BME280;15597;50.914;6.638;2023-03-26T00:19:55;100051.63;;;14.27;51.93
28344;BME280;15597;50.914;6.638;2023-03-26T00:22:21;100050.69;;;14.28;51.58
28344;BME280;15597;50.914;6.638;2023-03-26T00:24:48;100052.44;;;14.27;51.87
28344;BME280;15597;50.914;6.638;2023-03-26T00:27:15;100049.91;;;14.26;51.95
28344;BME280;15597;50.914;6.638;2023-03-26T00:29:42;100045.56;;;14.25;51.65
28344;BME280;15597;50.914;6.638;2023-03-26T00:32:07;100046.34;;;14.27;51.76
28344;BME280;15597;50.914;6.638;2023-03-26T00:34:33;100031.53;;;14.24;52.16
28344;BME280;15597;50.914;6.638;2023-03-26T00:36:59;100038.50;;;14.25;51.70
28344;BME280;15597;50.914;6.638;2023-03-26T00:39:27;100030.63;;;14.25;52.15
28344;BME280;15597;50.914;6.638;2023-03-26T00:41:54;100031.41;;;14.27;52.08
28344;BME280;15597;50.914;6.638;2023-03-26T00:44:20;100036.59;;;14.29;51.89
28344;BME280;15597;50.914;6.638;2023-03-26T00:46:47;100030.41;;;14.30;51.98
28344;BME280;15597;50.914;6.638;2023-03-26T00:49:12;100023.31;;;14.32;52.09
28344;BME280;15597;50.914;6.638;2023-03-26T00:51:40;100021.47;;;14.34;52.21
28344;BME280;15597;50.914;6.638;2023-03-26T00:54:06;100024.19;;;14.32;51.88
28344;BME280;15597;50.914;6.638;2023-03-26T00:56:33;100021.59;;;14.31;52.33
28344;BME280;15597;50.914;6.638;2023-03-26T00:58:59;100020.81;;;14.29;52.29
28344;BME280;15597;50.914;6.638;2023-03-26T01:01:26;100016.47;;;14.28;52.52
28344;BME280;15597;50.914;6.638;2023-03-26T01:03:54;100016.63;;;14.25;52.54
28344;BME280;15597;50.914;6.638;2023-03-26T01:06:28;100008.88;;;14.22;52.60
28344;BME280;15597;50.914;6.638;2023-03-26T01:09:12;99997.56;;;14.20;52.21
28344;BME280;15597;50.914;6.638;2023-03-26T01:11:38;100001.81;;;14.22;52.57
28344;BME280;15597;50.914;6.638;2023-03-26T01:14:11;99987.88;;;14.20;52.41
28344;BME280;15597;50.914;6.638;2023-03-26T01:16:52;100000.09;;;14.21;52.44
28344;BME280;15597;50.914;6.638;2023-03-26T01:22:16;99985.19;;;14.22;52.58
28344;BME280;15597;50.914;6.638;2023-03-26T01:24:42;99978.06;;;14.24;52.67
28344;BME280;15597;50.914;6.638;2023-03-26T01:29:55;99968.34;;;14.26;52.31
28344;BME280;15597;50.914;6.638;2023-03-26T01:40:28;99956.16;;;14.23;52.76
28344;BME280;15597;50.914;6.638;2023-03-26T01:43:33;99958.00;;;14.21;52.85
28344;BME280;15597;50.914;6.638;2023-03-26T01:46:04;99953.66;;;14.20;52.53
28344;BME280;15597;50.914;6.638;2023-03-26T01:48:37;99951.97;;;14.19;53.06
28344;BME280;15597;50.914;6.638;2023-03-26T01:51:04;99951.81;;;14.22;52.85
28344;BME280;15597;50.914;6.638;2023-03-26T01:53:30;99943.88;;;14.24;52.61
28344;BME280;15597;50.914;6.638;2023-03-26T01:56:24;99938.66;;;14.22;52.39
28344;BME280;15597;50.914;6.638;2023-03-26T01:58:57;99935.97;;;14.24;52.92
28344;BME280;15597;50.914;6.638;2023-03-26T02:01:28;99932.41;;;14.25;52.71
28344;BME280;15597;50.914;6.638;2023-03-26T02:04:05;99927.22;;;14.23;52.45
28344;BME280;15597;50.914;6.638;2023-03-26T02:09:29;99922.03;;;14.22;52.94
28344;BME280;15597;50.914;6.638;2023-03-26T02:11:57;99911.50;;;14.22;52.97
28344;BME280;15597;50.914;6.638;2023-03-26T02:14:24;99913.22;;;14.23;53.03
28344;BME280;15597;50.914;6.638;2023-03-26T02:16:50;99907.09;;;14.22;52.86
28344;BME280;15597;50.914;6.638;2023-03-26T02:19:16;99902.69;;;14.23;52.55
28344;BME280;15597;50.914;6.638;2023-03-26T02:21:47;99904.41;;;14.24;52.64
28344;BME280;15597;50.914;6.638;2023-03-26T02:24:17;99906.94;;;14.25;52.75
28344;BME280;15597;50.914;6.638;2023-03-26T02:26:43;99896.41;;;14.25;52.64
28344;BME280;15597;50.914;6.638;2023-03-26T02:29:10;99886.75;;;14.26;52.95
28344;BME280;15597;50.914;6.638;2023-03-26T02:31:38;99877.16;;;14.25;52.90
28344;BME280;15597;50.914;6.638;2023-03-26T02:34:04;99872.81;;;14.24;52.64
28344;BME280;15597;50.914;6.638;2023-03-26T02:36:32;99862.91;;;14.11;53.27
28344;BME280;15597;50.914;6.638;2023-03-26T02:39:01;99867.91;;;14.16;53.07
28344;BME280;15597;50.914;6.638;2023-03-26T02:41:31;99864.31;;;14.19;52.69
28344;BME280;15597;50.914;6.638;2023-03-26T02:44:03;99855.34;;;14.23;52.56
28344;BME280;15597;50.914;6.638;2023-03-26T02:46:50;99856.13;;;14.25;52.67
28344;BME280;15597;50.914;6.638;2023-03-26T02:49:35;99854.25;;;14.27;52.93
28344;BME280;15597;50.914;6.638;2023-03-26T02:52:01;99844.50;;;14.29;52.60
28344;BME280;15597;50.914;6.638;2023-03-26T02:54:31;99847.06;;;14.30;52.38
28344;BME280;15597;50.914;6.638;2023-03-26T02:57:16;99842.81;;;14.28;53.00
28344;BME280;15597;50.914;6.638;2023-03-26T03:00:08;99831.50;;;14.26;52.95
28344;BME280;15597;50.914;6.638;2023-03-26T03:02:37;99830.56;;;14.27;52.92
28344;BME280;15597;50.914;6.638;2023-03-26T03:05:35;99818.34;;;14.26;52.73
28344;BME280;15597;50.914;6.638;2023-03-26T03:08:20;99818.34;;;14.26;52.72
28344;BME280;15597;50.914;6.638;2023-03-26T03:11:10;99824.75;;;14.20;52.81
28344;BME280;15597;50.914;6.638;2023-03-26T03:13:44;99818.66;;;14.20;53.01
28344;BME280;15597;50.914;6.638;2023-03-26T03:16:13;99813.38;;;14.20;52.87
28344;BME280;15597;50.914;6.638;2023-03-26T03:18:39;99802.88;;;14.20;53.22
28344;BME280;15597;50.914;6.638;2023-03-26T03:21:05;99806.13;;;14.25;52.98
28344;BME280;15597;50.914;6.638;2023-03-26T03:23:31;99801.63;;;14.27;52.89
28344;BME280;15597;50.914;6.638;2023-03-26T03:26:12;99796.53;;;14.24;53.05
28344;BME280;15597;50.914;6.638;2023-03-26T03:28:39;99797.28;;;14.26;52.65
28344;BME280;15597;50.914;6.638;2023-03-26T03:31:05;99797.16;;;14.29;52.79
28344;BME280;15597;50.914;6.638;2023-03-26T03:33:33;99791.88;;;14.29;52.95
28344;BME280;15597;50.914;6.638;2023-03-26T03:36:00;99787.38;;;14.31;52.99
28344;BME280;15597;50.914;6.638;2023-03-26T03:38:26;99784.59;;;14.34;52.81
28344;BME280;15597;50.914;6.638;2023-03-26T03:40:53;99777.44;;;14.38;52.60
28344;BME280;15597;50.914;6.638;2023-03-26T03:43:20;99779.03;;;14.40;52.33
28344;BME280;15597;50.914;6.638;2023-03-26T03:46:01;99767.66;;;14.40;52.51
28344;BME280;15597;50.914;6.638;2023-03-26T03:48:32;99761.53;;;14.39;52.45
28344;BME280;15597;50.914;6.638;2023-03-26T03:50:58;99755.44;;;14.39;52.70
28344;BME280;15597;50.914;6.638;2023-03-26T03:53:27;99749.31;;;14.38;52.64
28344;BME280;15597;50.914;6.638;2023-03-26T03:55:55;99746.38;;;14.27;52.65
28344;BME280;15597;50.914;6.638;2023-03-26T03:58:25;99743.59;;;14.30;52.66
28344;BME280;15597;50.914;6.638;2023-03-26T04:00:57;99744.41;;;14.30;52.61
28344;BME280;15597;50.914;6.638;2023-03-26T04:03:45;99740.34;;;14.25;52.46
28344;BME280;15597;50.914;6.638;2023-03-26T04:06:13;99738.00;;;14.19;52.60
28344;BME280;15597;50.914;6.638;2023-03-26T04:08:44;99726.09;;;14.11;52.56
28344;BME280;15597;50.914;6.638;2023-03-26T04:11:12;99722.69;;;14.09;52.68
28344;BME280;15597;50.914;6.638;2023-03-26T04:14:04;99725.31;;;14.09;52.69
28344;BME280;15597;50.914;6.638;2023-03-26T04:16:50;99718.28;;;14.10;52.70
28344;BME280;15597;50.914;6.638;2023-03-26T04:19:15;99717.44;;;14.09;52.92
28344;BME280;15597;50.914;6.638;2023-03-26T04:21:42;99722.06;;;14.04;52.97
28344;BME280;15597;50.914;6.638;2023-03-26T04:24:08;99712.63;;;14.00;52.73
28344;BME280;15597;50.914;6.638;2023-03-26T04:27:01;99707.69;;;13.94;52.79
28344;BME280;15597;50.914;6.638;2023-03-26T04:29:38;99698.16;;;13.91;53.12
28344;BME280;15597;50.914;6.638;2023-03-26T04:32:17;99689.44;;;13.91;53.01
28344;BME280;15597;50.914;6.638;2023-03-26T04:34:46;99693.59;;;13.95;52.75
28344;BME280;15597;50.914;6.638;2023-03-26T04:37:41;99685.94;;;13.90;53.31
28344;BME280;15597;50.914;6.638;2023-03-26T04:40:28;99678.28;;;13.85;53.28
28344;BME280;15597;50.914;6.638;2023-03-26T04:43:03;99676.88;;;13.78;52.99
28344;BME280;15597;50.914;6.638;2023-03-26T04:45:55;99685.00;;;13.73;53.35
28344;BME280;15597;50.914;6.638;2023-03-26T04:48:23;99671.22;;;13.68;53.38
28344;BME280;15597;50.914;6.638;2023-03-26T04:50:49;99677.63;;;13.63;53.79
28344;BME280;15597;50.914;6.638;2023-03-26T04:53:18;99673.38;;;13.60;53.92
28344;BME280;15597;50.914;6.638;2023-03-26T04:59:19;99662.44;;;13.50;53.90
28344;BME280;15597;50.914;6.638;2023-03-26T05:01:51;99660.75;;;13.49;54.40
28344;BME280;15597;50.914;6.638;2023-03-26T05:04:17;99657.34;;;13.47;54.65
28344;BME280;15597;50.914;6.638;2023-03-26T05:06:43;99659.91;;;13.49;54.34
28344;BME280;15597;50.914;6.638;2023-03-26T05:09:20;99654.66;;;13.49;54.70
28344;BME280;15597;50.914;6.638;2023-03-26T05:12:08;99648.38;;;13.51;54.52
28344;BME280;15597;50.914;6.638;2023-03-26T05:14:44;99642.91;;;13.56;54.22
28344;BME280;15597;50.914;6.638;2023-03-26T05:17:16;99639.13;;;13.62;54.76
28344;BME280;15597;50.914;6.638;2023-03-26T05:19:43;99635.19;;;13.70;54.23
28344;BME280;15597;50.914;6.638;2023-03-26T05:22:11;99628.75;;;13.76;54.46
28344;BME280;15597;50.914;6.638;2023-03-26T05:24:46;99618.91;;;13.81;53.99
28344;BME280;15597;50.914;6.638;2023-03-26T05:27:15;99610.84;;;13.84;54.17
28344;BME280;15597;50.914;6.638;2023-03-26T05:29:47;99606.38;;;13.86;53.89
28344;BME280;15597;50.914;6.638;2023-03-26T05:32:12;99598.31;;;13.90;54.14
28344;BME280;15597;50.914;6.638;2023-03-26T05:34:39;99590.28;;;13.93;54.37
28344;BME280;15597;50.914;6.638;2023-03-26T05:37:04;99578.81;;;13.94;54.24
28344;BME280;15597;50.914;6.638;2023-03-26T05:39:44;99580.53;;;13.95;54.18
28344;BME280;15597;50.914;6.638;2023-03-26T05:42:30;99570.00;;;13.95;54.05
28344;BME280;15597;50.914;6.638;2023-03-26T05:45:15;99565.66;;;13.94;54.17
28344;BME280;15597;50.914;6.638;2023-03-26T05:47:41;99564.81;;;13.93;53.92
28344;BME280;15597;50.914;6.638;2023-03-26T05:50:08;99561.34;;;13.93;53.97
28344;BME280;15597;50.914;6.638;2023-03-26T05:52:36;99545.56;;;13.93;54.00
28344;BME280;15597;50.914;6.638;2023-03-26T05:55:25;99544.84;;;13.89;54.21
28344;BME280;15597;50.914;6.638;2023-03-26T05:58:21;99537.13;;;13.86;54.21
28344;BME280;15597;50.914;6.638;2023-03-26T06:01:08;99543.41;;;13.83;54.47
28344;BME280;15597;50.914;6.638;2023-03-26T06:03:54;99535.44;;;13.85;54.53
28344;BME280;15597;50.914;6.638;2023-03-26T06:06:22;99547.59;;;13.87;54.13
28344;BME280;15597;50.914;6.638;2023-03-26T06:08:54;99543.41;;;13.83;54.41
28344;BME280;15597;50.914;6.638;2023-03-26T06:11:20;99550.53;;;13.81;54.10
28344;BME280;15597;50.914;6.638;2023-03-26T06:13:46;99536.63;;;13.79;54.39
28344;BME280;15597;50.914;6.638;2023-03-26T06:16:13;99530.50;;;13.79;54.36
28344;BME280;15597;50.914;6.638;2023-03-26T06:18:44;99536.63;;;13.79;54.59
28344;BME280;15597;50.914;6.638;2023-03-26T06:21:16;99534.00;;;13.79;54.65
28344;BME280;15597;50.914;6.638;2023-03-26T06:23:47;99520.84;;;13.79;54.67
28344;BME280;15597;50.914;6.638;2023-03-26T06:26:43;99520.97;;;13.76;54.83
28344;BME280;15597;50.914;6.638;2023-03-26T06:29:20;99520.13;;;13.76;55.01
28344;BME280;15597;50.914;6.638;2023-03-26T06:31:51;99516.66;;;13.75;54.40
28344;BME280;15597;50.914;6.638;2023-03-26T06:34:24;99517.56;;;13.74;55.18
28344;BME280;15597;50.914;6.638;2023-03-26T06:36:50;99508.75;;;13.75;54.61
28344;BME280;15597;50.914;6.638;2023-03-26T06:39:18;99505.97;;;13.78;54.50
28344;BME280;15597;50.914;6.638;2023-03-26T06:41:56;99502.50;;;13.78;54.60
28344;BME280;15597;50.914;6.638;2023-03-26T06:44:54;99497.47;;;13.73;55.13
28344;BME280;15597;50.914;6.638;2023-03-26T06:47:38;99506.13;;;13.75;54.85
28344;BME280;15597;50.914;6.638;2023-03-26T06:50:39;99501.81;;;13.74;54.88
28344;BME280;15597;50.914;6.638;2023-03-26T06:53:22;99499.94;;;13.76;54.78
28344;BME280;15597;50.914;6.638;2023-03-26T06:56:13;99499.16;;;13.74;54.69
28344;BME280;15597;50.914;6.638;2023-03-26T06:58:54;99495.72;;;13.73;54.56
28344;BME280;15597;50.914;6.638;2023-03-26T07:01:38;99493.16;;;13.72;54.77
28344;BME280;15597;50.914;6.638;2023-03-26T07:04:42;99487.97;;;13.70;55.02
28344;BME280;15597;50.914;6.638;2023-03-26T07:07:26;99487.22;;;13.68;54.88
28344;BME280;15597;50.914;6.638;2023-03-26T07:10:10;99481.97;;;13.68;55.02
28344;BME280;15597;50.914;6.638;2023-03-26T07:13:02;99479.38;;;13.67;55.25
28344;BME280;15597;50.914;6.638;2023-03-26T07:15:34;99477.69;;;13.66;54.72
28344;BME280;15597;50.914;6.638;2023-03-26T07:18:28;99469.03;;;13.64;55.50
28344;BME280;15597;50.914;6.638;2023-03-26T07:20:54;99465.47;;;13.65;55.03
28344;BME280;15597;50.914;6.638;2023-03-26T07:23:21;99468.88;;;13.67;55.12
28344;BME280;15597;50.914;6.638;2023-03-26T07:29:48;99464.88;;;13.59;55.29
28344;BME280;15597;50.914;6.638;2023-03-26T07:32:44;99453.75;;;13.54;55.38
28344;BME280;15597;50.914;6.638;2023-03-26T07:39:41;99443.56;;;13.48;55.81
28344;BME280;15597;50.914;6.638;2023-03-26T07:43:13;99446.44;;;13.43;55.69
28344;BME280;15597;50.914;6.638;2023-03-26T07:45:54;99438.47;;;13.45;55.77
28344;BME280;15597;50.914;6.638;2023-03-26T07:48:44;99443.72;;;13.45;55.76
28344;BME280;15597;50.914;6.638;2023-03-26T07:51:34;99447.13;;;13.47;55.82
28344;BME280;15597;50.914;6.638;2023-03-26T07:54:15;99442.72;;;13.48;55.84
28344;BME280;15597;50.914;6.638;2023-03-26T07:57:37;99436.91;;;13.41;55.68
28344;BME280;15597;50.914;6.638;2023-03-26T08:00:33;99435.19;;;13.40;56.12
28344;BME280;15597;50.914;6.638;2023-03-26T08:06:15;99425.47;;;13.42;56.04
28344;BME280;15597;50.914;6.638;2023-03-26T08:09:29;99422.84;;;13.42;56.12
28344;BME280;15597;50.914;6.638;2023-03-26T08:15:20;99426.38;;;13.41;56.13
28344;BME280;15597;50.914;6.638;2023-03-26T08:21:11;99418.97;;;13.49;55.83
28344;BME280;15597;50.914;6.638;2023-03-26T08:26:52;99413.56;;;13.52;56.06
28344;BME280;15597;50.914;6.638;2023-03-26T08:29:48;99413.56;;;13.52;56.27
28344;BME280;15597;50.914;6.638;2023-03-26T08:32:17;99411.53;;;13.57;55.90
28344;BME280;15597;50.914;6.638;2023-03-26T08:34:44;99407.97;;;13.58;55.81
28344;BME280;15597;50.914;6.638;2023-03-26T08:37:11;99408.84;;;13.59;55.85
28344;BME280;15597;50.914;6.638;2023-03-26T08:39:37;99412.25;;;13.61;55.86
28344;BME280;15597;50.914;6.638;2023-03-26T08:48:33;99399.50;;;13.53;56.11
28344;BME280;15597;50.914;6.638;2023-03-26T08:54:18;99399.66;;;13.50;56.29
28344;BME280;15597;50.914;6.638;2023-03-26T08:57:13;99382.19;;;13.49;56.34
28344;BME280;15597;50.914;6.638;2023-03-26T09:00:07;99376.94;;;13.49;56.31
28344;BME280;15597;50.914;6.638;2023-03-26T09:05:38;99366.59;;;13.46;56.50
28344;BME280;15597;50.914;6.638;2023-03-26T09:25:43;99342.69;;;13.17;57.33
28344;BME280;15597;50.914;6.638;2023-03-26T09:40:07;99328.69;;;13.17;57.66
28344;BME280;15597;50.914;6.638;2023-03-26T09:42:43;99323.19;;;13.21;57.41
28344;BME280;15597;50.914;6.638;2023-03-26T09:51:04;99304.41;;;13.29;57.34
28344;BME280;15597;50.914;6.638;2023-03-26T09:56:34;99297.22;;;13.33;57.58
28344;BME280;15597;50.914;6.638;2023-03-26T09:59:38;99298.91;;;13.34;57.49
28344;BME280;15597;50.914;6.638;2023-03-26T10:05:00;99294.25;;;13.39;57.52
28344;BME280;15597;50.914;6.638;2023-03-26T10:07:52;99287.28;;;13.38;57.33
28344;BME280;15597;50.914;6.638;2023-03-26T10:10:31;99291.63;;;13.39;57.23
28344;BME280;15597;50.914;6.638;2023-03-26T10:15:42;99285.38;;;13.41;57.63
28344;BME280;15597;50.914;6.638;2023-03-26T10:18:20;99280.97;;;13.42;57.19
28344;BME280;15597;50.914;6.638;2023-03-26T10:20:52;99277.25;;;13.46;57.21
28344;BME280;15597;50.914;6.638;2023-03-26T10:26:47;99279.13;;;13.44;57.29
28344;BME280;15597;50.914;6.638;2023-03-26T10:29:35;99277.06;;;13.49;57.33
28344;BME280;15597;50.914;6.638;2023-03-26T10:34:59;99263.25;;;13.62;57.54
28344;BME280;15597;50.914;6.638;2023-03-26T10:51:28;99242.81;;;13.67;57.34
28344;BME280;15597;50.914;6.638;2023-03-26T10:54:11;99243.16;;;13.61;57.46
28344;BME280;15597;50.914;6.638;2023-03-26T10:56:46;99246.56;;;13.63;57.52
28344;BME280;15597;50.914;6.638;2023-03-26T10:59:15;99246.03;;;13.72;57.37
28344;BME280;15597;50.914;6.638;2023-03-26T11:12:49;99236.38;;;13.88;57.13
28344;BME280;15597;50.914;6.638;2023-03-26T11:23:25;99230.41;;;14.01;56.87
28344;BME280;15597;50.914;6.638;2023-03-26T11:26:07;99230.31;;;14.02;56.73
28344;BME280;15597;50.914;6.638;2023-03-26T11:33:51;99230.81;;;14.09;56.85
28344;BME280;15597;50.914;6.638;2023-03-26T11:36:39;99229.69;;;14.13;56.70
28344;BME280;15597;50.914;6.638;2023-03-26T11:39:11;99231.97;;;14.20;56.55
28344;BME280;15597;50.914;6.638;2023-03-26T11:41:39;99228.97;;;14.26;56.84
28344;BME280;15597;50.914;6.638;2023-03-26T11:44:31;99231.31;;;14.30;56.96
28344;BME280;15597;50.914;6.638;2023-03-26T11:47:03;99227.59;;;14.35;56.67
28344;BME280;15597;50.914;6.638;2023-03-26T11:49:30;99232.59;;;14.39;56.42
28344;BME280;15597;50.914;6.638;2023-03-26T11:51:56;99234.84;;;14.45;56.40
28344;BME280;15597;50.914;6.638;2023-03-26T11:54:23;99229.41;;;14.49;56.33
28344;BME280;15597;50.914;6.638;2023-03-26T11:57:04;99231.28;;;14.46;56.32
28344;BME280;15597;50.914;6.638;2023-03-26T11:59:36;99233.66;;;14.51;56.58
28344;BME280;15597;50.914;6.638;2023-03-26T12:04:38;99241.81;;;14.61;56.51
28344;BME280;15597;50.914;6.638;2023-03-26T12:07:32;99261.13;;;14.61;56.40
28344;BME280;15597;50.914;6.638;2023-03-26T12:09:59;99257.91;;;14.56;55.93
28344;BME280;15597;50.914;6.638;2023-03-26T12:12:28;99263.53;;;14.50;56.00
28344;BME280;15597;50.914;6.638;2023-03-26T12:14:56;99257.59;;;14.46;55.87
28344;BME280;15597;50.914;6.638;2023-03-26T12:17:32;99257.97;;;14.40;55.92
28344;BME280;15597;50.914;6.638;2023-03-26T12:19:58;99250.81;;;14.42;56.05
28344;BME280;15597;50.914;6.638;2023-03-26T12:22:33;99254.56;;;14.38;56.16
28344;BME280;15597;50.914;6.638;2023-03-26T12:27:26;99256.25;;;14.39;56.22
28344;BME280;15597;50.914;6.638;2023-03-26T12:30:08;99260.69;;;14.39;56.33
28344;BME280;15597;50.914;6.638;2023-03-26T12:32:40;99252.88;;;14.37;56.70
28344;BME280;15597;50.914;6.638;2023-03-26T12:35:14;99258.13;;;14.37;56.48
28344;BME280;15597;50.914;6.638;2023-03-26T12:37:43;99258.91;;;14.39;56.38
28344;BME280;15597;50.914;6.638;2023-03-26T12:43:02;99261.53;;;14.39;56.58
28344;BME280;15597;50.914;6.638;2023-03-26T12:45:39;99262.47;;;14.38;57.12
28344;BME280;15597;50.914;6.638;2023-03-26T12:48:08;99267.19;;;14.48;56.31
28344;BME280;15597;50.914;6.638;2023-03-26T12:56:42;99276.16;;;14.29;56.87
28344;BME280;15597;50.914;6.638;2023-03-26T12:59:32;99281.03;;;14.21;56.56
28344;BME280;15597;50.914;6.638;2023-03-26T13:10:37;99293.78;;;14.12;57.27
28344;BME280;15597;50.914;6.638;2023-03-26T13:15:37;99299.88;;;14.13;57.48
28344;BME280;15597;50.914;6.638;2023-03-26T13:32:02;99309.44;;;14.14;56.74
28344;BME280;15597;50.914;6.638;2023-03-26T13:37:29;99313.53;;;14.20;56.82
28344;BME280;15597;50.914;6.638;2023-03-26T13:45:33;99310.53;;;14.26;56.76
28344;BME280;15597;50.914;6.638;2023-03-26T13:48:11;99309.59;;;14.27;56.76
28344;BME280;15597;50.914;6.638;2023-03-26T13:50:40;99306.88;;;14.28;56.94
28344;BME280;15597;50.914;6.638;2023-03-26T13:53:14;99308.56;;;14.29;56.60
28344;BME280;15597;50.914;6.638;2023-03-26T13:55:47;99317.06;;;14.35;56.93
28344;BME280;15597;50.914;6.638;2023-03-26T14:01:26;99318.59;;;14.39;57.08
28344;BME280;15597;50.914;6.638;2023-03-26T14:04:12;99313.97;;;14.42;57.11
28344;BME280;15597;50.914;6.638;2023-03-26T14:06:52;99316.34;;;14.47;56.96
28344;BME280;15597;50.914;6.638;2023-03-26T14:09:28;99323.13;;;14.51;56.79
28344;BME280;15597;50.914;6.638;2023-03-26T14:14:54;99325.66;;;14.53;56.72
28344;BME280;15597;50.914;6.638;2023-03-26T14:17:43;99327.53;;;14.51;56.68
28344;BME280;15597;50.914;6.638;2023-03-26T14:23:24;99324.84;;;14.52;56.92
28344;BME280;15597;50.914;6.638;2023-03-26T14:29:16;99334.84;;;14.45;56.76
28344;BME280;15597;50.914;6.638;2023-03-26T14:31:57;99341.75;;;14.48;56.32
28344;BME280;15597;50.914;6.638;2023-03-26T14:42:24;99351.88;;;14.40;56.75
28344;BME280;15597;50.914;6.638;2023-03-26T14:47:43;99356.09;;;14.42;56.37
28344;BME280;15597;50.914;6.638;2023-03-26T14:50:29;99356.25;;;14.39;56.50
28344;BME280;15597;50.914;6.638;2023-03-26T14:53:11;99359.66;;;14.41;56.41
28344;BME280;15597;50.914;6.638;2023-03-26T14:58:55;99369.53;;;14.38;56.48
28344;BME280;15597;50.914;6.638;2023-03-26T15:01:28;99370.34;;;14.38;56.43
28344;BME280;15597;50.914;6.638;2023-03-26T15:04:36;99372.50;;;14.31;56.60
28344;BME280;15597;50.914;6.638;2023-03-26T15:20:46;99400.75;;;14.28;56.66
28344;BME280;15597;50.914;6.638;2023-03-26T15:31:27;99406.03;;;14.28;55.92
28344;BME280;15597;50.914;6.638;2023-03-26T15:34:23;99418.41;;;14.26;56.24
28344;BME280;15597;50.914;6.638;2023-03-26T15:42:18;99431.03;;;14.19;56.53
28344;BME280;15597;50.914;6.638;2023-03-26T15:44:53;99437.06;;;14.21;56.50
28344;BME280;15597;50.914;6.638;2023-03-26T15:47:47;99434.53;;;14.20;56.30
28344;BME280;15597;50.914;6.638;2023-03-26T15:50:43;99448.63;;;14.19;56.37
28344;BME280;15597;50.914;6.638;2023-03-26T15:53:24;99452.19;;;14.17;55.64
28344;BME280;15597;50.914;6.638;2023-03-26T15:56:04;99451.31;;;14.17;56.05
28344;BME280;15597;50.914;6.638;2023-03-26T16:01:30;99460.09;;;14.17;56.18
28344;BME280;15597;50.914;6.638;2023-03-26T16:04:23;99469.66;;;14.19;56.24
28344;BME280;15597;50.914;6.638;2023-03-26T16:06:59;99474.94;;;14.19;56.24
28344;BME280;15597;50.914;6.638;2023-03-26T16:14:44;99499.03;;;14.27;56.39
28344;BME280;15597;50.914;6.638;2023-03-26T16:17:18;99493.84;;;14.25;56.13
28344;BME280;15597;50.914;6.638;2023-03-26T16:22:44;99500.81;;;14.26;56.00
28344;BME280;15597;50.914;6.638;2023-03-26T16:25:25;99498.50;;;14.20;56.17
28344;BME280;15597;50.914;6.638;2023-03-26T16:28:30;99503.09;;;14.16;56.43
28344;BME280;15597;50.914;6.638;2023-03-26T16:31:19;99508.53;;;14.13;56.65
28344;BME280;15597;50.914;6.638;2023-03-26T16:36:39;99523.38;;;14.14;56.08
28344;BME280;15597;50.914;6.638;2023-03-26T16:44:11;99543.50;;;14.15;56.43
28344;BME280;15597;50.914;6.638;2023-03-26T16:49:34;99550.78;;;14.10;56.55
28344;BME280;15597;50.914;6.638;2023-03-26T16:55:14;99564.59;;;13.98;57.05
28344;BME280;15597;50.914;6.638;2023-03-26T16:57:49;99570.94;;;13.94;56.46
28344;BME280;15597;50.914;6.638;2023-03-26T17:00:58;99574.97;;;13.83;56.97
28344;BME280;15597;50.914;6.638;2023-03-26T17:03:53;99581.16;;;13.82;56.76
28344;BME280;15597;50.914;6.638;2023-03-26T17:09:21;99592.44;;;13.84;57.09
28344;BME280;15597;50.914;6.638;2023-03-26T17:12:13;99597.97;;;13.78;57.26
28344;BME280;15597;50.914;6.638;2023-03-26T17:14:59;99599.72;;;13.79;57.05
28344;BME280;15597;50.914;6.638;2023-03-26T17:23:17;99619.19;;;13.75;57.56
28344;BME280;15597;50.914;6.638;2023-03-26T17:29:07;99643.91;;;13.71;57.08
28344;BME280;15597;50.914;6.638;2023-03-26T17:32:08;99650.09;;;13.70;56.95
28344;BME280;15597;50.914;6.638;2023-03-26T17:34:40;99656.13;;;13.72;57.10
28344;BME280;15597;50.914;6.638;2023-03-26T17:44:43;99688.59;;;13.53;57.47
28344;BME280;15597;50.914;6.638;2023-03-26T17:47:38;99682.00;;;13.44;57.97
28344;BME280;15597;50.914;6.638;2023-03-26T17:52:57;99697.13;;;13.39;58.03
28344;BME280;15597;50.914;6.638;2023-03-26T17:55:26;99702.50;;;13.36;57.75
28344;BME280;15597;50.914;6.638;2023-03-26T18:01:25;99717.13;;;13.23;57.90
28344;BME280;15597;50.914;6.638;2023-03-26T18:03:58;99716.28;;;13.22;58.36
28344;BME280;15597;50.914;6.638;2023-03-26T18:17:20;99756.66;;;13.20;58.55
28344;BME280;15597;50.914;6.638;2023-03-26T18:19:54;99763.84;;;13.16;58.19
28344;BME280;15597;50.914;6.638;2023-03-26T18:22:28;99768.19;;;13.17;58.01
28344;BME280;15597;50.914;6.638;2023-03-26T18:24:56;99779.59;;;13.16;58.22
28344;BME280;15597;50.914;6.638;2023-03-26T18:27:25;99781.31;;;13.17;58.12
28344;BME280;15597;50.914;6.638;2023-03-26T18:32:25;99798.00;;;13.16;58.32
28344;BME280;15597;50.914;6.638;2023-03-26T18:34:58;99806.84;;;13.13;57.73
28344;BME280;15597;50.914;6.638;2023-03-26T18:37:27;99800.69;;;13.14;58.24
28344;BME280;15597;50.914;6.638;2023-03-26T18:40:06;99811.28;;;13.13;58.35
28344;BME280;15597;50.914;6.638;2023-03-26T18:42:43;99816.66;;;13.10;58.17
28344;BME280;15597;50.914;6.638;2023-03-26T18:47:47;99823.75;;;13.08;58.16
28344;BME280;15597;50.914;6.638;2023-03-26T18:50:17;99830.84;;;13.06;58.58
28344;BME280;15597;50.914;6.638;2023-03-26T18:52:46;99840.50;;;13.05;58.45